Afton, MI

5:47 AM EST on February 10, 2016 (GMT -0500)
MesoWest | | Change Station
CLOSE
Current Station
Personal Weather Station
Location: Wolverine, MI
Elevation: 881 ft
Nearby Weather Stations

Elev 881 ft 45.27 °N, 84.59 °W | Updated 37 minutes ago

Snow
Snow
6 °F
Feels Like -11 °F
N
14
Wind Variable Wind from NW
Gusts 20.0 mph

Today
High -- | Low -- °F
--% Chance of Precip.
Yesterday
High -- | Low -- °F
Precip. -- in
Pressure 29.79 in
Visibility 2.5 miles
Clouds Scattered Clouds 1400 ft
Overcast 2300 ft
Windchill -11 °F
Dew Point 2 °F
Humidity 81%
Rainfall in
Snow Depth Not available.
7:47 AM 5:57 PM
Waxing Crescent, 5% visible
METAR KSLH 101034Z AUTO 33014G19KT 2 1/2SM -SN SCT014 OVC023 M13/M16 A2979 RMK AO2 T11311161
Pressure 29.79 in
Visibility 2.5 miles
Clouds Scattered Clouds 1400 ft
Overcast 2300 ft
Windchill -11 °F
Dew Point 2 °F
Humidity 81%
Rainfall in
Snow Depth Not available.
7:47 AM 5:57 PM
Waxing Crescent, 5% visible
METAR KSLH 101034Z AUTO 33014G19KT 2 1/2SM -SN SCT014 OVC023 M13/M16 A2979 RMK AO2 T11311161

10-Day Weather Forecast

Almanac

Astronomy

Feb. 10, 2016 Rise Set
Actual Time
Civil Twilight
Nautical Twilight
Astronomical Twilight
Moon
Length of Visible Light
Length of Day
Tomorrow will be .
, % of the Moon is Illuminated

Today's Extremes

State Highs State Lows

Community

WunderPhotos

Upload Photos

1,891,830 photos uploaded!

WunderBlog® & News

Nearby

Air Quality

  Air Quality AQ Index Pollutant
Not available.

Snow Depth

Station Depth Elevation

Earthquake Activity

City Distance Mag. Time & Date
Minimum magnitude displayed is 2.5.

Coastal Water Temperatures

Place Temperature

Stations

Nearby Weather Stations

Station Location Temp. Windchill Dew Point Humidity Wind Precip. Elev Updated Type
                   

Watches & Warnings

There are currently no watches in effect.